sensor_id;sensor_type;location;lat;lon;timestamp;temperature;humidity
46029;DHT22;31763;48.180;7.904;2023-01-26T00:01:18;-0.10;99.90
46029;DHT22;31763;48.180;7.904;2023-01-26T00:03:46;-0.10;99.90
46029;DHT22;31763;48.180;7.904;2023-01-26T00:06:16;0.00;99.90
46029;DHT22;31763;48.180;7.904;2023-01-26T00:08:45;0.00;99.90
46029;DHT22;31763;48.180;7.904;2023-01-26T00:11:18;0.10;99.90
46029;DHT22;31763;48.180;7.904;2023-01-26T00:13:50;-0.10;99.90
46029;DHT22;31763;48.180;7.904;2023-01-26T00:16:17;-0.20;99.90
46029;DHT22;31763;48.180;7.904;2023-01-26T00:18:44;-0.10;99.90
46029;DHT22;31763;48.180;7.904;2023-01-26T00:21:15;0.00;99.90
46029;DHT22;31763;48.180;7.904;2023-01-26T00:23:44;0.00;99.90
46029;DHT22;31763;48.180;7.904;2023-01-26T00:26:14;0.00;99.90
46029;DHT22;31763;48.180;7.904;2023-01-26T00:28:42;-0.10;99.90
46029;DHT22;31763;48.180;7.904;2023-01-26T00:31:24;-0.20;99.90
46029;DHT22;31763;48.180;7.904;2023-01-26T00:33:53;-0.10;99.90
46029;DHT22;31763;48.180;7.904;2023-01-26T00:36:21;0.00;99.90
46029;DHT22;31763;48.180;7.904;2023-01-26T00:38:48;0.00;99.90
46029;DHT22;31763;48.180;7.904;2023-01-26T00:41:15;0.00;99.90
46029;DHT22;31763;48.180;7.904;2023-01-26T00:44:00;0.00;99.90
46029;DHT22;31763;48.180;7.904;2023-01-26T00:46:28;0.10;99.90
46029;DHT22;31763;48.180;7.904;2023-01-26T00:48:54;0.10;99.90
46029;DHT22;31763;48.180;7.904;2023-01-26T00:51:21;0.40;99.90
46029;DHT22;31763;48.180;7.904;2023-01-26T00:53:48;0.00;99.90
46029;DHT22;31763;48.180;7.904;2023-01-26T00:56:15;0.00;99.90
46029;DHT22;31763;48.180;7.904;2023-01-26T00:58:42;-0.20;99.90
46029;DHT22;31763;48.180;7.904;2023-01-26T01:01:11;-0.10;99.90
46029;DHT22;31763;48.180;7.904;2023-01-26T01:03:37;0.00;99.90
46029;DHT22;31763;48.180;7.904;2023-01-26T01:06:04;0.10;99.90
46029;DHT22;31763;48.180;7.904;2023-01-26T01:08:31;0.10;99.90
46029;DHT22;31763;48.180;7.904;2023-01-26T01:11:05;0.10;99.90
46029;DHT22;31763;48.180;7.904;2023-01-26T01:13:34;0.10;99.90
46029;DHT22;31763;48.180;7.904;2023-01-26T01:16:07;0.20;99.90
46029;DHT22;31763;48.180;7.904;2023-01-26T01:18:35;0.10;99.90
46029;DHT22;31763;48.180;7.904;2023-01-26T01:21:10;0.20;99.90
46029;DHT22;31763;48.180;7.904;2023-01-26T01:23:41;0.10;99.90
46029;DHT22;31763;48.180;7.904;2023-01-26T01:26:09;-0.20;99.90
46029;DHT22;31763;48.180;7.904;2023-01-26T01:28:36;-0.10;99.90
46029;DHT22;31763;48.180;7.904;2023-01-26T01:31:10;0.10;99.90
46029;DHT22;31763;48.180;7.904;2023-01-26T01:33:38;0.10;99.90
46029;DHT22;31763;48.180;7.904;2023-01-26T01:36:08;0.10;99.90
46029;DHT22;31763;48.180;7.904;2023-01-26T01:38:37;0.10;99.90
46029;DHT22;31763;48.180;7.904;2023-01-26T01:41:05;0.10;99.90
46029;DHT22;31763;48.180;7.904;2023-01-26T01:43:33;0.10;99.90
46029;DHT22;31763;48.180;7.904;2023-01-26T01:46:02;0.10;99.90
46029;DHT22;31763;48.180;7.904;2023-01-26T01:48:55;-0.10;99.90
46029;DHT22;31763;48.180;7.904;2023-01-26T01:51:48;-0.20;99.90
46029;DHT22;31763;48.180;7.904;2023-01-26T01:54:22;0.00;99.90
46029;DHT22;31763;48.180;7.904;2023-01-26T01:56:56;-0.10;99.90
46029;DHT22;31763;48.180;7.904;2023-01-26T01:59:24;-0.10;99.90
46029;DHT22;31763;48.180;7.904;2023-01-26T02:01:52;0.20;99.90
46029;DHT22;31763;48.180;7.904;2023-01-26T02:04:20;0.10;99.90
46029;DHT22;31763;48.180;7.904;2023-01-26T02:06:53;0.10;99.90
46029;DHT22;31763;48.180;7.904;2023-01-26T02:09:28;0.00;99.90
46029;DHT22;31763;48.180;7.904;2023-01-26T02:12:19;0.10;99.90
46029;DHT22;31763;48.180;7.904;2023-01-26T02:14:51;0.00;99.90
46029;DHT22;31763;48.180;7.904;2023-01-26T02:17:18;-0.10;99.90
46029;DHT22;31763;48.180;7.904;2023-01-26T02:26:15;-0.20;99.90
46029;DHT22;31763;48.180;7.904;2023-01-26T02:28:45;-0.20;99.90
46029;DHT22;31763;48.180;7.904;2023-01-26T02:31:13;-0.20;99.90
46029;DHT22;31763;48.180;7.904;2023-01-26T02:33:41;-0.30;99.90
46029;DHT22;31763;48.180;7.904;2023-01-26T02:36:17;-0.20;99.90
46029;DHT22;31763;48.180;7.904;2023-01-26T02:38:52;-0.20;99.90
46029;DHT22;31763;48.180;7.904;2023-01-26T02:41:24;-0.10;99.90
46029;DHT22;31763;48.180;7.904;2023-01-26T02:44:11;-0.10;99.90
46029;DHT22;31763;48.180;7.904;2023-01-26T02:46:39;-0.20;99.90
46029;DHT22;31763;48.180;7.904;2023-01-26T02:49:05;-0.20;99.90
46029;DHT22;31763;48.180;7.904;2023-01-26T02:51:51;-0.20;99.90
46029;DHT22;31763;48.180;7.904;2023-01-26T02:54:17;-0.40;99.90
46029;DHT22;31763;48.180;7.904;2023-01-26T02:57:03;-0.40;99.90
46029;DHT22;31763;48.180;7.904;2023-01-26T02:59:30;-0.50;99.90
46029;DHT22;31763;48.180;7.904;2023-01-26T03:01:56;-0.60;99.90
46029;DHT22;31763;48.180;7.904;2023-01-26T03:04:24;-0.50;99.90
46029;DHT22;31763;48.180;7.904;2023-01-26T03:06:51;-0.50;99.90
46029;DHT22;31763;48.180;7.904;2023-01-26T03:09:18;-0.70;99.90
46029;DHT22;31763;48.180;7.904;2023-01-26T03:11:45;-0.60;99.90
46029;DHT22;31763;48.180;7.904;2023-01-26T03:14:13;-0.70;99.90
46029;DHT22;31763;48.180;7.904;2023-01-26T03:16:41;-0.80;99.90
46029;DHT22;31763;48.180;7.904;2023-01-26T03:19:11;-1.00;99.90
46029;DHT22;31763;48.180;7.904;2023-01-26T03:21:58;-0.90;99.90
46029;DHT22;31763;48.180;7.904;2023-01-26T03:24:44;-0.70;99.90
46029;DHT22;31763;48.180;7.904;2023-01-26T03:27:34;-0.70;99.90
46029;DHT22;31763;48.180;7.904;2023-01-26T03:30:14;-0.70;99.90
46029;DHT22;31763;48.180;7.904;2023-01-26T03:32:42;-0.70;99.90
46029;DHT22;31763;48.180;7.904;2023-01-26T03:35:09;-0.80;99.90
46029;DHT22;31763;48.180;7.904;2023-01-26T03:37:43;-0.90;99.90
46029;DHT22;31763;48.180;7.904;2023-01-26T03:40:11;-0.80;99.90
46029;DHT22;31763;48.180;7.904;2023-01-26T03:42:57;-0.70;99.90
46029;DHT22;31763;48.180;7.904;2023-01-26T03:45:42;-0.60;99.90
46029;DHT22;31763;48.180;7.904;2023-01-26T03:48:27;-0.70;99.90
46029;DHT22;31763;48.180;7.904;2023-01-26T03:51:12;-0.80;99.90
46029;DHT22;31763;48.180;7.904;2023-01-26T03:53:58;-0.80;99.90
46029;DHT22;31763;48.180;7.904;2023-01-26T03:56:43;-0.80;99.90
46029;DHT22;31763;48.180;7.904;2023-01-26T03:59:10;-0.80;99.90
46029;DHT22;31763;48.180;7.904;2023-01-26T04:01:43;-0.70;99.90
46029;DHT22;31763;48.180;7.904;2023-01-26T04:04:29;-0.80;99.90
46029;DHT22;31763;48.180;7.904;2023-01-26T04:07:14;-0.70;99.90
46029;DHT22;31763;48.180;7.904;2023-01-26T04:10:00;-0.70;99.90
46029;DHT22;31763;48.180;7.904;2023-01-26T04:12:27;-0.70;99.90
46029;DHT22;31763;48.180;7.904;2023-01-26T04:14:53;-0.70;99.90
46029;DHT22;31763;48.180;7.904;2023-01-26T04:17:39;-0.70;99.90
46029;DHT22;31763;48.180;7.904;2023-01-26T04:20:24;-0.80;99.90
46029;DHT22;31763;48.180;7.904;2023-01-26T04:23:19;-0.80;99.90
46029;DHT22;31763;48.180;7.904;2023-01-26T04:25:47;-0.90;99.90
46029;DHT22;31763;48.180;7.904;2023-01-26T04:28:14;-0.80;99.90
46029;DHT22;31763;48.180;7.904;2023-01-26T04:30:41;-0.80;99.90
46029;DHT22;31763;48.180;7.904;2023-01-26T04:33:08;-0.80;99.90
46029;DHT22;31763;48.180;7.904;2023-01-26T04:35:35;-0.90;99.90
46029;DHT22;31763;48.180;7.904;2023-01-26T04:38:02;-1.00;99.90
46029;DHT22;31763;48.180;7.904;2023-01-26T04:40:29;-1.00;99.90
46029;DHT22;31763;48.180;7.904;2023-01-26T04:42:55;-0.90;99.90
46029;DHT22;31763;48.180;7.904;2023-01-26T04:45:22;-1.00;99.90
46029;DHT22;31763;48.180;7.904;2023-01-26T04:47:49;-0.90;99.90
46029;DHT22;31763;48.180;7.904;2023-01-26T04:50:16;-1.00;99.90
46029;DHT22;31763;48.180;7.904;2023-01-26T04:52:43;-0.90;99.90
46029;DHT22;31763;48.180;7.904;2023-01-26T04:55:10;-0.90;99.90
46029;DHT22;31763;48.180;7.904;2023-01-26T04:57:36;-0.90;99.90
46029;DHT22;31763;48.180;7.904;2023-01-26T05:00:04;-1.00;99.90
46029;DHT22;31763;48.180;7.904;2023-01-26T05:02:31;-1.00;99.90
46029;DHT22;31763;48.180;7.904;2023-01-26T05:04:58;-0.90;99.90
46029;DHT22;31763;48.180;7.904;2023-01-26T05:07:25;-0.90;99.90
46029;DHT22;31763;48.180;7.904;2023-01-26T05:09:51;-0.80;99.90
46029;DHT22;31763;48.180;7.904;2023-01-26T05:12:18;-0.70;99.90
46029;DHT22;31763;48.180;7.904;2023-01-26T05:15:00;-0.80;99.90
46029;DHT22;31763;48.180;7.904;2023-01-26T05:17:26;-0.80;99.90
46029;DHT22;31763;48.180;7.904;2023-01-26T05:19:53;-0.80;99.90
46029;DHT22;31763;48.180;7.904;2023-01-26T05:22:20;-0.70;99.90
46029;DHT22;31763;48.180;7.904;2023-01-26T05:24:47;-0.70;99.90
46029;DHT22;31763;48.180;7.904;2023-01-26T05:27:14;-0.70;99.90
46029;DHT22;31763;48.180;7.904;2023-01-26T05:29:47;-0.90;99.90
46029;DHT22;31763;48.180;7.904;2023-01-26T05:32:15;-0.80;99.90
46029;DHT22;31763;48.180;7.904;2023-01-26T05:34:43;-0.60;99.90
46029;DHT22;31763;48.180;7.904;2023-01-26T05:37:10;-0.70;99.90
46029;DHT22;31763;48.180;7.904;2023-01-26T05:39:40;-0.70;99.90
46029;DHT22;31763;48.180;7.904;2023-01-26T05:42:07;-0.80;99.90
46029;DHT22;31763;48.180;7.904;2023-01-26T05:44:34;-0.70;99.90
46029;DHT22;31763;48.180;7.904;2023-01-26T05:47:00;-0.70;99.90
46029;DHT22;31763;48.180;7.904;2023-01-26T05:49:27;-0.70;99.90
46029;DHT22;31763;48.180;7.904;2023-01-26T05:51:54;-0.70;99.90
46029;DHT22;31763;48.180;7.904;2023-01-26T05:54:21;-0.80;99.90
46029;DHT22;31763;48.180;7.904;2023-01-26T05:56:48;-0.90;99.90
46029;DHT22;31763;48.180;7.904;2023-01-26T05:59:15;-0.90;99.90
46029;DHT22;31763;48.180;7.904;2023-01-26T06:01:42;-1.00;99.90
46029;DHT22;31763;48.180;7.904;2023-01-26T06:04:09;-1.10;99.90
46029;DHT22;31763;48.180;7.904;2023-01-26T06:06:36;-1.10;99.90
46029;DHT22;31763;48.180;7.904;2023-01-26T06:09:03;-1.10;99.90
46029;DHT22;31763;48.180;7.904;2023-01-26T06:11:31;-1.10;99.90
46029;DHT22;31763;48.180;7.904;2023-01-26T06:13:58;-1.00;99.90
46029;DHT22;31763;48.180;7.904;2023-01-26T06:16:25;-0.90;99.90
46029;DHT22;31763;48.180;7.904;2023-01-26T06:18:52;-1.00;99.90
46029;DHT22;31763;48.180;7.904;2023-01-26T06:21:19;-1.00;99.90
46029;DHT22;31763;48.180;7.904;2023-01-26T06:23:45;-0.90;99.90
46029;DHT22;31763;48.180;7.904;2023-01-26T06:26:12;-1.00;99.90
46029;DHT22;31763;48.180;7.904;2023-01-26T06:28:40;-1.00;99.90
46029;DHT22;31763;48.180;7.904;2023-01-26T06:31:08;-0.90;99.90
46029;DHT22;31763;48.180;7.904;2023-01-26T06:33:36;-1.00;99.90
46029;DHT22;31763;48.180;7.904;2023-01-26T06:36:06;-0.90;99.90
46029;DHT22;31763;48.180;7.904;2023-01-26T06:38:35;-0.90;99.90
46029;DHT22;31763;48.180;7.904;2023-01-26T06:41:05;-0.80;99.90
46029;DHT22;31763;48.180;7.904;2023-01-26T06:43:34;-0.80;99.90
46029;DHT22;31763;48.180;7.904;2023-01-26T06:46:02;-0.90;99.90
46029;DHT22;31763;48.180;7.904;2023-01-26T06:48:32;-0.90;99.90
46029;DHT22;31763;48.180;7.904;2023-01-26T06:53:57;-0.80;99.90
46029;DHT22;31763;48.180;7.904;2023-01-26T06:56:24;-0.90;99.90
46029;DHT22;31763;48.180;7.904;2023-01-26T06:58:53;-1.10;99.90
46029;DHT22;31763;48.180;7.904;2023-01-26T07:01:24;-1.10;99.90
46029;DHT22;31763;48.180;7.904;2023-01-26T07:03:53;-1.20;99.90
46029;DHT22;31763;48.180;7.904;2023-01-26T07:06:20;-1.10;99.90
46029;DHT22;31763;48.180;7.904;2023-01-26T07:08:47;-1.10;99.90
46029;DHT22;31763;48.180;7.904;2023-01-26T07:11:14;-1.20;99.90
46029;DHT22;31763;48.180;7.904;2023-01-26T07:13:42;-1.30;99.90
46029;DHT22;31763;48.180;7.904;2023-01-26T07:16:14;-1.30;99.90
46029;DHT22;31763;48.180;7.904;2023-01-26T07:18:42;-1.20;99.90
46029;DHT22;31763;48.180;7.904;2023-01-26T07:21:15;-1.20;99.90
46029;DHT22;31763;48.180;7.904;2023-01-26T07:23:47;-1.20;99.90
46029;DHT22;31763;48.180;7.904;2023-01-26T07:26:14;-1.20;99.90
46029;DHT22;31763;48.180;7.904;2023-01-26T07:28:41;-1.10;99.90
46029;DHT22;31763;48.180;7.904;2023-01-26T07:31:09;-1.10;99.90
46029;DHT22;31763;48.180;7.904;2023-01-26T07:33:37;-1.10;99.90
46029;DHT22;31763;48.180;7.904;2023-01-26T07:36:04;-1.10;99.90
46029;DHT22;31763;48.180;7.904;2023-01-26T07:38:32;-1.20;99.90
46029;DHT22;31763;48.180;7.904;2023-01-26T07:41:08;-1.20;99.90
46029;DHT22;31763;48.180;7.904;2023-01-26T07:43:39;-1.20;99.90
46029;DHT22;31763;48.180;7.904;2023-01-26T07:46:07;-1.30;99.90
46029;DHT22;31763;48.180;7.904;2023-01-26T07:48:36;-1.10;99.90
46029;DHT22;31763;48.180;7.904;2023-01-26T07:51:04;-1.10;99.90
46029;DHT22;31763;48.180;7.904;2023-01-26T07:53:32;-1.00;99.90
46029;DHT22;31763;48.180;7.904;2023-01-26T07:56:11;-0.90;99.90
46029;DHT22;31763;48.180;7.904;2023-01-26T07:58:39;-1.00;99.90
46029;DHT22;31763;48.180;7.904;2023-01-26T08:01:09;-1.00;99.90
46029;DHT22;31763;48.180;7.904;2023-01-26T08:03:38;-1.00;99.90
46029;DHT22;31763;48.180;7.904;2023-01-26T08:06:06;-1.10;99.90
46029;DHT22;31763;48.180;7.904;2023-01-26T08:08:37;-1.00;99.90
46029;DHT22;31763;48.180;7.904;2023-01-26T08:11:08;-1.10;99.90
46029;DHT22;31763;48.180;7.904;2023-01-26T08:13:35;-1.00;99.90
46029;DHT22;31763;48.180;7.904;2023-01-26T08:16:05;-0.90;99.90
46029;DHT22;31763;48.180;7.904;2023-01-26T08:18:42;-1.00;99.90
46029;DHT22;31763;48.180;7.904;2023-01-26T08:21:11;-0.90;99.90
46029;DHT22;31763;48.180;7.904;2023-01-26T08:23:39;-0.90;99.90
46029;DHT22;31763;48.180;7.904;2023-01-26T08:26:09;-0.80;99.90
46029;DHT22;31763;48.180;7.904;2023-01-26T08:28:38;-0.90;99.90
46029;DHT22;31763;48.180;7.904;2023-01-26T08:31:07;-1.10;99.90
46029;DHT22;31763;48.180;7.904;2023-01-26T08:33:40;-1.00;99.90
46029;DHT22;31763;48.180;7.904;2023-01-26T08:36:11;-0.90;99.90
46029;DHT22;31763;48.180;7.904;2023-01-26T08:38:39;-0.90;99.90
46029;DHT22;31763;48.180;7.904;2023-01-26T08:41:07;-0.90;99.90
46029;DHT22;31763;48.180;7.904;2023-01-26T08:43:34;-0.90;99.90
46029;DHT22;31763;48.180;7.904;2023-01-26T08:46:02;-0.90;99.90
46029;DHT22;31763;48.180;7.904;2023-01-26T08:48:29;-1.00;99.90
46029;DHT22;31763;48.180;7.904;2023-01-26T08:50:58;-0.90;99.90
46029;DHT22;31763;48.180;7.904;2023-01-26T08:53:29;-1.00;99.90
46029;DHT22;31763;48.180;7.904;2023-01-26T08:56:00;-1.10;99.90
46029;DHT22;31763;48.180;7.904;2023-01-26T08:58:27;-1.00;99.90
46029;DHT22;31763;48.180;7.904;2023-01-26T09:00:55;-0.90;99.90
46029;DHT22;31763;48.180;7.904;2023-01-26T09:03:22;-0.90;99.90
46029;DHT22;31763;48.180;7.904;2023-01-26T09:05:49;-0.90;99.90
46029;DHT22;31763;48.180;7.904;2023-01-26T09:08:15;-1.00;99.90
46029;DHT22;31763;48.180;7.904;2023-01-26T09:10:42;-1.00;99.90
46029;DHT22;31763;48.180;7.904;2023-01-26T09:13:11;-0.80;99.90
46029;DHT22;31763;48.180;7.904;2023-01-26T09:15:38;-0.80;99.90
46029;DHT22;31763;48.180;7.904;2023-01-26T09:18:05;-0.80;99.90
46029;DHT22;31763;48.180;7.904;2023-01-26T09:20:32;-0.80;99.90
46029;DHT22;31763;48.180;7.904;2023-01-26T09:22:59;-0.70;99.90
46029;DHT22;31763;48.180;7.904;2023-01-26T09:25:25;-0.70;99.90
46029;DHT22;31763;48.180;7.904;2023-01-26T09:27:52;-0.80;99.90
46029;DHT22;31763;48.180;7.904;2023-01-26T09:30:19;-0.80;99.90
46029;DHT22;31763;48.180;7.904;2023-01-26T09:32:46;-0.70;99.90
46029;DHT22;31763;48.180;7.904;2023-01-26T09:35:13;-0.70;99.90
46029;DHT22;31763;48.180;7.904;2023-01-26T09:37:44;-0.80;99.90
46029;DHT22;31763;48.180;7.904;2023-01-26T09:40:18;-0.90;99.90
46029;DHT22;31763;48.180;7.904;2023-01-26T09:46:06;-1.00;99.90
46029;DHT22;31763;48.180;7.904;2023-01-26T09:49:07;-1.10;99.90
46029;DHT22;31763;48.180;7.904;2023-01-26T09:51:43;-1.00;99.90
46029;DHT22;31763;48.180;7.904;2023-01-26T09:54:27;-1.00;99.90
46029;DHT22;31763;48.180;7.904;2023-01-26T09:56:56;-0.90;99.90
46029;DHT22;31763;48.180;7.904;2023-01-26T10:00:04;-1.00;99.90
46029;DHT22;31763;48.180;7.904;2023-01-26T10:05:48;0.50;99.90
46029;DHT22;31763;48.180;7.904;2023-01-26T10:08:24;0.50;99.90
46029;DHT22;31763;48.180;7.904;2023-01-26T10:10:59;-0.70;99.90
46029;DHT22;31763;48.180;7.904;2023-01-26T10:13:29;-0.80;99.90
46029;DHT22;31763;48.180;7.904;2023-01-26T10:16:02;0.10;99.90
46029;DHT22;31763;48.180;7.904;2023-01-26T10:18:46;-0.70;99.90
46029;DHT22;31763;48.180;7.904;2023-01-26T10:21:22;-0.80;99.90
46029;DHT22;31763;48.180;7.904;2023-01-26T10:23:51;-1.00;99.90
46029;DHT22;31763;48.180;7.904;2023-01-26T10:26:21;-0.70;99.90
46029;DHT22;31763;48.180;7.904;2023-01-26T10:28:50;-0.90;99.90
46029;DHT22;31763;48.180;7.904;2023-01-26T10:31:20;-0.80;99.90
46029;DHT22;31763;48.180;7.904;2023-01-26T10:36:28;-0.80;99.90
46029;DHT22;31763;48.180;7.904;2023-01-26T10:39:03;-0.80;99.90
46029;DHT22;31763;48.180;7.904;2023-01-26T10:41:32;-1.00;99.90
46029;DHT22;31763;48.180;7.904;2023-01-26T10:46:40;-0.90;99.90
46029;DHT22;31763;48.180;7.904;2023-01-26T10:51:43;-0.90;99.90
46029;DHT22;31763;48.180;7.904;2023-01-26T10:54:25;-0.80;99.90
46029;DHT22;31763;48.180;7.904;2023-01-26T10:59:29;-0.90;99.90
46029;DHT22;31763;48.180;7.904;2023-01-26T11:02:21;-0.90;99.90
46029;DHT22;31763;48.180;7.904;2023-01-26T11:07:45;-0.90;99.90
46029;DHT22;31763;48.180;7.904;2023-01-26T11:10:33;-0.90;99.90
46029;DHT22;31763;48.180;7.904;2023-01-26T11:13:07;-0.90;99.90
46029;DHT22;31763;48.180;7.904;2023-01-26T11:18:52;-0.90;99.90
46029;DHT22;31763;48.180;7.904;2023-01-26T11:24:32;-1.10;99.90
46029;DHT22;31763;48.180;7.904;2023-01-26T11:27:18;-1.00;99.90
46029;DHT22;31763;48.180;7.904;2023-01-26T11:30:13;-1.10;99.90
46029;DHT22;31763;48.180;7.904;2023-01-26T11:36:17;-1.00;99.90
46029;DHT22;31763;48.180;7.904;2023-01-26T11:41:39;-0.90;99.90
46029;DHT22;31763;48.180;7.904;2023-01-26T11:45:02;-1.00;99.90
46029;DHT22;31763;48.180;7.904;2023-01-26T11:59:58;-1.10;99.90
46029;DHT22;31763;48.180;7.904;2023-01-26T12:02:35;-1.10;99.90
46029;DHT22;31763;48.180;7.904;2023-01-26T12:05:20;-0.90;99.90
46029;DHT22;31763;48.180;7.904;2023-01-26T12:10:32;-0.60;99.90
46029;DHT22;31763;48.180;7.904;2023-01-26T12:13:15;-0.90;99.90
46029;DHT22;31763;48.180;7.904;2023-01-26T12:15:52;-0.90;99.90
46029;DHT22;31763;48.180;7.904;2023-01-26T12:18:23;-0.90;99.90
46029;DHT22;31763;48.180;7.904;2023-01-26T12:21:12;-1.00;99.90
46029;DHT22;31763;48.180;7.904;2023-01-26T12:23:49;-0.90;99.90
46029;DHT22;31763;48.180;7.904;2023-01-26T12:26:27;-0.80;99.90
46029;DHT22;31763;48.180;7.904;2023-01-26T12:29:18;-0.70;99.90
46029;DHT22;31763;48.180;7.904;2023-01-26T12:32:00;-0.80;99.90
46029;DHT22;31763;48.180;7.904;2023-01-26T12:34:32;-0.80;99.90
46029;DHT22;31763;48.180;7.904;2023-01-26T12:40:29;-0.70;99.90
46029;DHT22;31763;48.180;7.904;2023-01-26T12:46:20;-0.90;99.90
46029;DHT22;31763;48.180;7.904;2023-01-26T12:48:59;-0.80;99.90
46029;DHT22;31763;48.180;7.904;2023-01-26T12:51:31;-0.80;99.90
46029;DHT22;31763;48.180;7.904;2023-01-26T12:54:18;-0.90;99.90
46029;DHT22;31763;48.180;7.904;2023-01-26T12:56:54;-0.90;99.90
46029;DHT22;31763;48.180;7.904;2023-01-26T12:59:36;-0.90;99.90
46029;DHT22;31763;48.180;7.904;2023-01-26T13:04:44;-0.90;99.90
46029;DHT22;31763;48.180;7.904;2023-01-26T13:07:36;-1.00;99.90
46029;DHT22;31763;48.180;7.904;2023-01-26T13:13:01;-0.90;99.90
46029;DHT22;31763;48.180;7.904;2023-01-26T13:15:46;-1.00;99.90
46029;DHT22;31763;48.180;7.904;2023-01-26T13:18:58;-1.00;99.90
46029;DHT22;31763;48.180;7.904;2023-01-26T13:26:48;-1.10;99.90
46029;DHT22;31763;48.180;7.904;2023-01-26T13:31:51;-0.80;99.90
46029;DHT22;31763;48.180;7.904;2023-01-26T13:34:36;-0.80;99.90
46029;DHT22;31763;48.180;7.904;2023-01-26T13:37:15;-0.90;99.90
46029;DHT22;31763;48.180;7.904;2023-01-26T13:39:59;-0.90;99.90
46029;DHT22;31763;48.180;7.904;2023-01-26T13:42:57;-1.00;99.90
46029;DHT22;31763;48.180;7.904;2023-01-26T13:46:05;-0.90;99.90
46029;DHT22;31763;48.180;7.904;2023-01-26T13:51:11;-0.90;99.90
46029;DHT22;31763;48.180;7.904;2023-01-26T13:54:22;-0.90;99.90
46029;DHT22;31763;48.180;7.904;2023-01-26T13:56:37;-0.80;99.90
46029;DHT22;31763;48.180;7.904;2023-01-26T13:59:16;-0.80;99.90
46029;DHT22;31763;48.180;7.904;2023-01-26T14:01:53;-0.90;99.90
46029;DHT22;31763;48.180;7.904;2023-01-26T14:04:29;-0.90;99.90
46029;DHT22;31763;48.180;7.904;2023-01-26T14:07:01;-0.80;99.90
46029;DHT22;31763;48.180;7.904;2023-01-26T14:09:32;-0.80;99.90
46029;DHT22;31763;48.180;7.904;2023-01-26T14:12:02;-0.90;99.90
46029;DHT22;31763;48.180;7.904;2023-01-26T14:14:33;-0.90;99.90
46029;DHT22;31763;48.180;7.904;2023-01-26T14:17:07;-0.90;99.90
46029;DHT22;31763;48.180;7.904;2023-01-26T14:19:39;-0.90;99.90
46029;DHT22;31763;48.180;7.904;2023-01-26T14:22:10;-0.90;99.90
46029;DHT22;31763;48.180;7.904;2023-01-26T14:24:39;-0.90;99.90
46029;DHT22;31763;48.180;7.904;2023-01-26T14:27:26;-0.80;99.90
46029;DHT22;31763;48.180;7.904;2023-01-26T14:30:28;-1.00;99.90
46029;DHT22;31763;48.180;7.904;2023-01-26T14:33:03;-0.90;99.90
46029;DHT22;31763;48.180;7.904;2023-01-26T14:35:31;-1.00;99.90
46029;DHT22;31763;48.180;7.904;2023-01-26T14:38:26;-1.00;99.90
46029;DHT22;31763;48.180;7.904;2023-01-26T14:40:56;-1.00;99.90
46029;DHT22;31763;48.180;7.904;2023-01-26T14:43:25;-1.00;99.90
46029;DHT22;31763;48.180;7.904;2023-01-26T14:46:09;-1.00;99.90
46029;DHT22;31763;48.180;7.904;2023-01-26T14:48:51;-1.20;99.90
46029;DHT22;31763;48.180;7.904;2023-01-26T14:51:32;-1.20;99.90
46029;DHT22;31763;48.180;7.904;2023-01-26T14:54:03;-1.10;99.90
46029;DHT22;31763;48.180;7.904;2023-01-26T14:56:39;-1.10;99.90
46029;DHT22;31763;48.180;7.904;2023-01-26T14:59:13;-1.20;99.90
46029;DHT22;31763;48.180;7.904;2023-01-26T15:01:47;-1.20;99.90
46029;DHT22;31763;48.180;7.904;2023-01-26T15:04:36;-1.30;99.90
46029;DHT22;31763;48.180;7.904;2023-01-26T15:07:40;-1.30;99.90
46029;DHT22;31763;48.180;7.904;2023-01-26T15:15:46;-1.30;99.90
46029;DHT22;31763;48.180;7.904;2023-01-26T15:18:32;-1.30;99.90
46029;DHT22;31763;48.180;7.904;2023-01-26T15:21:12;-1.30;99.90
46029;DHT22;31763;48.180;7.904;2023-01-26T15:23:42;-1.20;99.90
46029;DHT22;31763;48.180;7.904;2023-01-26T15:26:31;-1.20;99.90
46029;DHT22;31763;48.180;7.904;2023-01-26T15:29:20;-1.20;99.90
46029;DHT22;31763;48.180;7.904;2023-01-26T15:31:53;-1.30;99.90
46029;DHT22;31763;48.180;7.904;2023-01-26T15:36:59;-1.30;99.90
46029;DHT22;31763;48.180;7.904;2023-01-26T15:39:27;-1.40;99.90
46029;DHT22;31763;48.180;7.904;2023-01-26T15:42:14;-1.50;99.90
46029;DHT22;31763;48.180;7.904;2023-01-26T15:44:46;-1.60;99.90
46029;DHT22;31763;48.180;7.904;2023-01-26T15:47:14;-1.60;99.90
46029;DHT22;31763;48.180;7.904;2023-01-26T15:49:40;-1.60;99.90
46029;DHT22;31763;48.180;7.904;2023-01-26T15:52:12;-1.60;99.90
46029;DHT22;31763;48.180;7.904;2023-01-26T15:54:43;-1.70;99.90
46029;DHT22;31763;48.180;7.904;2023-01-26T15:57:11;-1.60;99.90
46029;DHT22;31763;48.180;7.904;2023-01-26T15:59:39;-1.70;99.90
46029;DHT22;31763;48.180;7.904;2023-01-26T16:02:13;-1.80;99.90
46029;DHT22;31763;48.180;7.904;2023-01-26T16:04:41;-1.70;99.90
46029;DHT22;31763;48.180;7.904;2023-01-26T16:07:13;-1.80;99.90
46029;DHT22;31763;48.180;7.904;2023-01-26T16:09:41;-1.90;99.90
46029;DHT22;31763;48.180;7.904;2023-01-26T16:12:12;-1.90;99.90
46029;DHT22;31763;48.180;7.904;2023-01-26T16:14:56;-1.80;99.90
46029;DHT22;31763;48.180;7.904;2023-01-26T16:17:23;-1.90;99.90
46029;DHT22;31763;48.180;7.904;2023-01-26T16:19:50;-1.90;99.90
46029;DHT22;31763;48.180;7.904;2023-01-26T16:22:17;-1.90;99.90
46029;DHT22;31763;48.180;7.904;2023-01-26T16:24:43;-1.80;99.90
46029;DHT22;31763;48.180;7.904;2023-01-26T16:27:12;-1.80;99.90
46029;DHT22;31763;48.180;7.904;2023-01-26T16:29:39;-1.70;99.90
46029;DHT22;31763;48.180;7.904;2023-01-26T16:32:27;-1.80;99.90
46029;DHT22;31763;48.180;7.904;2023-01-26T16:34:54;-1.80;99.90
46029;DHT22;31763;48.180;7.904;2023-01-26T16:37:21;-1.90;99.90
46029;DHT22;31763;48.180;7.904;2023-01-26T16:39:48;-1.80;99.90
46029;DHT22;31763;48.180;7.904;2023-01-26T16:42:17;-1.90;99.90
46029;DHT22;31763;48.180;7.904;2023-01-26T16:44:46;-1.90;99.90
46029;DHT22;31763;48.180;7.904;2023-01-26T16:47:13;-1.90;99.90
46029;DHT22;31763;48.180;7.904;2023-01-26T16:49:40;-1.90;99.90
46029;DHT22;31763;48.180;7.904;2023-01-26T16:52:07;-1.90;99.90
46029;DHT22;31763;48.180;7.904;2023-01-26T16:54:35;-1.80;99.90
46029;DHT22;31763;48.180;7.904;2023-01-26T16:57:02;-1.90;99.90
46029;DHT22;31763;48.180;7.904;2023-01-26T16:59:29;-1.80;99.90
46029;DHT22;31763;48.180;7.904;2023-01-26T17:01:56;-1.90;99.90
46029;DHT22;31763;48.180;7.904;2023-01-26T17:04:23;-1.90;99.90
46029;DHT22;31763;48.180;7.904;2023-01-26T17:06:50;-1.90;99.90
46029;DHT22;31763;48.180;7.904;2023-01-26T17:09:17;-2.00;99.90
46029;DHT22;31763;48.180;7.904;2023-01-26T17:11:43;-1.90;99.90
46029;DHT22;31763;48.180;7.904;2023-01-26T17:14:10;-1.80;99.90
46029;DHT22;31763;48.180;7.904;2023-01-26T17:16:38;-1.90;99.90
46029;DHT22;31763;48.180;7.904;2023-01-26T17:19:05;-1.90;99.90
46029;DHT22;31763;48.180;7.904;2023-01-26T17:21:34;-1.90;99.90
46029;DHT22;31763;48.180;7.904;2023-01-26T17:24:02;-1.90;99.90
46029;DHT22;31763;48.180;7.904;2023-01-26T17:26:29;-1.90;99.90
46029;DHT22;31763;48.180;7.904;2023-01-26T17:28:56;-1.90;99.90
46029;DHT22;31763;48.180;7.904;2023-01-26T17:31:23;-2.00;99.90
46029;DHT22;31763;48.180;7.904;2023-01-26T17:33:50;-1.90;99.90